sensor_id;sensor_type;location;lat;lon;timestamp;P1;durP1;ratioP1;P2;durP2;ratioP2
50906;SDS011;36882;27.680;85.304;2022-11-14T00:00:42;109.43;;;60.13;;
50906;SDS011;36882;27.680;85.304;2022-11-14T00:03:14;109.97;;;59.85;;
50906;SDS011;36882;27.680;85.304;2022-11-14T00:05:44;115.10;;;60.40;;
50906;SDS011;36882;27.680;85.304;2022-11-14T00:08:17;108.63;;;59.55;;
50906;SDS011;36882;27.680;85.304;2022-11-14T00:10:50;119.45;;;63.75;;
50906;SDS011;36882;27.680;85.304;2022-11-14T00:13:20;115.15;;;61.42;;
50906;SDS011;36882;27.680;85.304;2022-11-14T00:15:51;111.05;;;61.25;;
50906;SDS011;36882;27.680;85.304;2022-11-14T00:18:22;124.93;;;66.90;;
50906;SDS011;36882;27.680;85.304;2022-11-14T00:20:53;128.77;;;68.07;;
50906;SDS011;36882;27.680;85.304;2022-11-14T00:23:23;126.68;;;64.15;;
50906;SDS011;36882;27.680;85.304;2022-11-14T00:25:54;132.15;;;67.22;;
50906;SDS011;36882;27.680;85.304;2022-11-14T00:28:24;132.27;;;66.88;;
50906;SDS011;36882;27.680;85.304;2022-11-14T00:30:55;156.85;;;79.63;;
50906;SDS011;36882;27.680;85.304;2022-11-14T00:33:26;155.98;;;81.30;;
50906;SDS011;36882;27.680;85.304;2022-11-14T00:35:57;147.32;;;77.18;;
50906;SDS011;36882;27.680;85.304;2022-11-14T00:38:29;140.52;;;71.88;;
50906;SDS011;36882;27.680;85.304;2022-11-14T00:40:59;131.55;;;74.22;;
50906;SDS011;36882;27.680;85.304;2022-11-14T00:43:29;121.88;;;68.15;;
50906;SDS011;36882;27.680;85.304;2022-11-14T00:46:00;128.30;;;64.75;;
50906;SDS011;36882;27.680;85.304;2022-11-14T00:48:30;116.63;;;65.20;;
50906;SDS011;36882;27.680;85.304;2022-11-14T00:51:01;107.90;;;58.60;;
50906;SDS011;36882;27.680;85.304;2022-11-14T00:56:01;115.15;;;60.38;;
50906;SDS011;36882;27.680;85.304;2022-11-14T00:58:32;114.35;;;59.58;;
50906;SDS011;36882;27.680;85.304;2022-11-14T01:01:02;127.28;;;64.03;;
50906;SDS011;36882;27.680;85.304;2022-11-14T01:03:33;127.70;;;67.90;;
50906;SDS011;36882;27.680;85.304;2022-11-14T01:06:05;115.13;;;65.90;;
50906;SDS011;36882;27.680;85.304;2022-11-14T01:08:37;115.30;;;63.60;;
50906;SDS011;36882;27.680;85.304;2022-11-14T01:11:08;125.93;;;65.47;;
50906;SDS011;36882;27.680;85.304;2022-11-14T01:13:41;115.60;;;65.30;;
50906;SDS011;36882;27.680;85.304;2022-11-14T01:18:42;125.80;;;66.20;;
50906;SDS011;36882;27.680;85.304;2022-11-14T01:21:13;131.10;;;67.03;;
50906;SDS011;36882;27.680;85.304;2022-11-14T01:23:43;134.85;;;68.07;;
50906;SDS011;36882;27.680;85.304;2022-11-14T01:26:14;133.23;;;69.75;;
50906;SDS011;36882;27.680;85.304;2022-11-14T01:31:18;143.48;;;75.07;;
50906;SDS011;36882;27.680;85.304;2022-11-14T01:33:51;155.52;;;84.05;;
50906;SDS011;36882;27.680;85.304;2022-11-14T01:36:23;153.00;;;84.57;;
50906;SDS011;36882;27.680;85.304;2022-11-14T01:38:53;174.70;;;97.15;;
50906;SDS011;36882;27.680;85.304;2022-11-14T01:41:24;163.93;;;90.72;;
50906;SDS011;36882;27.680;85.304;2022-11-14T01:43:55;154.07;;;86.47;;
50906;SDS011;36882;27.680;85.304;2022-11-14T01:46:34;169.45;;;89.25;;
50906;SDS011;36882;27.680;85.304;2022-11-14T01:49:13;157.45;;;89.95;;
50906;SDS011;36882;27.680;85.304;2022-11-14T01:51:54;160.38;;;87.70;;
50906;SDS011;36882;27.680;85.304;2022-11-14T01:54:36;170.98;;;88.32;;
50906;SDS011;36882;27.680;85.304;2022-11-14T01:57:10;147.13;;;86.10;;
50906;SDS011;36882;27.680;85.304;2022-11-14T01:59:45;154.60;;;82.00;;
50906;SDS011;36882;27.680;85.304;2022-11-14T02:02:20;133.77;;;71.55;;
50906;SDS011;36882;27.680;85.304;2022-11-14T02:04:58;114.03;;;61.58;;
50906;SDS011;36882;27.680;85.304;2022-11-14T02:07:35;120.63;;;71.70;;
50906;SDS011;36882;27.680;85.304;2022-11-14T02:10:13;125.15;;;68.35;;
50906;SDS011;36882;27.680;85.304;2022-11-14T02:12:45;141.48;;;79.82;;
50906;SDS011;36882;27.680;85.304;2022-11-14T02:15:17;139.38;;;78.53;;
50906;SDS011;36882;27.680;85.304;2022-11-14T02:20:20;125.50;;;73.30;;
50906;SDS011;36882;27.680;85.304;2022-11-14T02:22:52;111.38;;;66.00;;
50906;SDS011;36882;27.680;85.304;2022-11-14T02:25:23;119.03;;;68.47;;
50906;SDS011;36882;27.680;85.304;2022-11-14T02:27:54;107.97;;;66.10;;
50906;SDS011;36882;27.680;85.304;2022-11-14T02:30:25;116.95;;;65.70;;
50906;SDS011;36882;27.680;85.304;2022-11-14T02:32:56;125.28;;;69.22;;
50906;SDS011;36882;27.680;85.304;2022-11-14T02:35:41;114.65;;;65.50;;
50906;SDS011;36882;27.680;85.304;2022-11-14T02:38:12;102.70;;;60.80;;
50906;SDS011;36882;27.680;85.304;2022-11-14T02:40:43;115.80;;;62.42;;
50906;SDS011;36882;27.680;85.304;2022-11-14T02:45:43;138.18;;;66.13;;
50906;SDS011;36882;27.680;85.304;2022-11-14T02:50:43;117.88;;;65.95;;
50906;SDS011;36882;27.680;85.304;2022-11-14T02:53:18;111.05;;;66.43;;
50906;SDS011;36882;27.680;85.304;2022-11-14T02:58:18;127.63;;;72.95;;
50906;SDS011;36882;27.680;85.304;2022-11-14T03:00:49;125.05;;;72.07;;
50906;SDS011;36882;27.680;85.304;2022-11-14T03:03:39;129.07;;;74.78;;
50906;SDS011;36882;27.680;85.304;2022-11-14T03:06:12;128.55;;;71.03;;
50906;SDS011;36882;27.680;85.304;2022-11-14T03:08:43;127.57;;;72.47;;
50906;SDS011;36882;27.680;85.304;2022-11-14T03:11:12;131.40;;;79.85;;
50906;SDS011;36882;27.680;85.304;2022-11-14T03:13:42;134.63;;;78.25;;
50906;SDS011;36882;27.680;85.304;2022-11-14T03:16:12;137.45;;;75.53;;
50906;SDS011;36882;27.680;85.304;2022-11-14T03:18:42;129.38;;;76.82;;
50906;SDS011;36882;27.680;85.304;2022-11-14T03:21:17;136.88;;;76.93;;
50906;SDS011;36882;27.680;85.304;2022-11-14T03:23:48;127.38;;;74.93;;
50906;SDS011;36882;27.680;85.304;2022-11-14T03:26:18;137.52;;;76.72;;
50906;SDS011;36882;27.680;85.304;2022-11-14T03:28:47;133.77;;;75.57;;
50906;SDS011;36882;27.680;85.304;2022-11-14T03:31:17;127.53;;;73.65;;
50906;SDS011;36882;27.680;85.304;2022-11-14T03:33:47;138.90;;;78.03;;
50906;SDS011;36882;27.680;85.304;2022-11-14T03:36:17;137.38;;;78.80;;
50906;SDS011;36882;27.680;85.304;2022-11-14T03:38:47;142.18;;;79.00;;
50906;SDS011;36882;27.680;85.304;2022-11-14T03:41:18;128.82;;;74.97;;
50906;SDS011;36882;27.680;85.304;2022-11-14T03:43:48;134.65;;;75.43;;
50906;SDS011;36882;27.680;85.304;2022-11-14T03:46:18;125.07;;;73.93;;
50906;SDS011;36882;27.680;85.304;2022-11-14T03:48:48;131.27;;;72.50;;
50906;SDS011;36882;27.680;85.304;2022-11-14T03:51:17;135.02;;;76.70;;
50906;SDS011;36882;27.680;85.304;2022-11-14T03:53:48;134.05;;;81.03;;
50906;SDS011;36882;27.680;85.304;2022-11-14T03:56:18;130.23;;;76.05;;
50906;SDS011;36882;27.680;85.304;2022-11-14T03:58:48;143.43;;;81.05;;
50906;SDS011;36882;27.680;85.304;2022-11-14T04:01:18;147.90;;;80.65;;
50906;SDS011;36882;27.680;85.304;2022-11-14T04:03:48;152.20;;;93.10;;
50906;SDS011;36882;27.680;85.304;2022-11-14T04:06:18;164.68;;;99.40;;
50906;SDS011;36882;27.680;85.304;2022-11-14T04:08:48;158.70;;;96.78;;
50906;SDS011;36882;27.680;85.304;2022-11-14T04:11:19;150.48;;;92.78;;
50906;SDS011;36882;27.680;85.304;2022-11-14T04:13:48;151.35;;;88.88;;
50906;SDS011;36882;27.680;85.304;2022-11-14T04:16:18;133.57;;;83.63;;
50906;SDS011;36882;27.680;85.304;2022-11-14T04:18:48;142.13;;;87.15;;
50906;SDS011;36882;27.680;85.304;2022-11-14T04:21:18;151.43;;;88.95;;
50906;SDS011;36882;27.680;85.304;2022-11-14T04:23:48;148.18;;;92.28;;
50906;SDS011;36882;27.680;85.304;2022-11-14T04:26:20;154.70;;;84.25;;
50906;SDS011;36882;27.680;85.304;2022-11-14T04:28:50;159.25;;;92.97;;
50906;SDS011;36882;27.680;85.304;2022-11-14T04:31:19;162.13;;;96.63;;
50906;SDS011;36882;27.680;85.304;2022-11-14T04:33:49;156.45;;;93.95;;
50906;SDS011;36882;27.680;85.304;2022-11-14T04:36:19;150.10;;;91.70;;
50906;SDS011;36882;27.680;85.304;2022-11-14T04:38:50;141.68;;;87.20;;
50906;SDS011;36882;27.680;85.304;2022-11-14T04:41:20;155.18;;;99.10;;
50906;SDS011;36882;27.680;85.304;2022-11-14T04:43:50;162.27;;;95.40;;
50906;SDS011;36882;27.680;85.304;2022-11-14T04:46:20;149.75;;;92.25;;
50906;SDS011;36882;27.680;85.304;2022-11-14T04:48:50;144.95;;;90.35;;
50906;SDS011;36882;27.680;85.304;2022-11-14T04:51:20;152.00;;;92.20;;
50906;SDS011;36882;27.680;85.304;2022-11-14T04:53:49;159.23;;;87.32;;
50906;SDS011;36882;27.680;85.304;2022-11-14T04:56:19;137.63;;;81.35;;
50906;SDS011;36882;27.680;85.304;2022-11-14T04:58:50;112.60;;;67.82;;
50906;SDS011;36882;27.680;85.304;2022-11-14T05:01:20;125.63;;;68.60;;
50906;SDS011;36882;27.680;85.304;2022-11-14T05:03:50;98.43;;;58.28;;
50906;SDS011;36882;27.680;85.304;2022-11-14T05:06:20;112.85;;;68.00;;
50906;SDS011;36882;27.680;85.304;2022-11-14T05:08:50;117.45;;;67.78;;
50906;SDS011;36882;27.680;85.304;2022-11-14T05:11:20;103.93;;;64.72;;
50906;SDS011;36882;27.680;85.304;2022-11-14T05:13:54;95.95;;;62.53;;
50906;SDS011;36882;27.680;85.304;2022-11-14T05:16:24;98.25;;;57.92;;
50906;SDS011;36882;27.680;85.304;2022-11-14T05:18:54;99.55;;;61.85;;
50906;SDS011;36882;27.680;85.304;2022-11-14T05:21:24;121.88;;;73.07;;
50906;SDS011;36882;27.680;85.304;2022-11-14T05:23:54;118.05;;;72.03;;
50906;SDS011;36882;27.680;85.304;2022-11-14T05:26:24;150.25;;;80.63;;
50906;SDS011;36882;27.680;85.304;2022-11-14T05:28:54;133.00;;;78.82;;
50906;SDS011;36882;27.680;85.304;2022-11-14T05:31:23;122.38;;;68.50;;
50906;SDS011;36882;27.680;85.304;2022-11-14T05:33:53;117.93;;;66.15;;
50906;SDS011;36882;27.680;85.304;2022-11-14T05:36:24;104.40;;;63.38;;
50906;SDS011;36882;27.680;85.304;2022-11-14T05:38:54;106.63;;;63.97;;
50906;SDS011;36882;27.680;85.304;2022-11-14T05:41:24;103.93;;;61.38;;
50906;SDS011;36882;27.680;85.304;2022-11-14T05:43:55;111.57;;;61.47;;
50906;SDS011;36882;27.680;85.304;2022-11-14T05:46:25;103.75;;;60.50;;
50906;SDS011;36882;27.680;85.304;2022-11-14T05:48:55;102.53;;;61.13;;
50906;SDS011;36882;27.680;85.304;2022-11-14T05:51:25;119.13;;;65.20;;
50906;SDS011;36882;27.680;85.304;2022-11-14T05:53:56;99.53;;;62.35;;
50906;SDS011;36882;27.680;85.304;2022-11-14T05:56:26;102.65;;;56.72;;
50906;SDS011;36882;27.680;85.304;2022-11-14T05:58:55;96.40;;;62.08;;
50906;SDS011;36882;27.680;85.304;2022-11-14T06:01:25;102.85;;;58.67;;
50906;SDS011;36882;27.680;85.304;2022-11-14T06:03:55;97.50;;;58.40;;
50906;SDS011;36882;27.680;85.304;2022-11-14T06:06:25;103.65;;;55.30;;
50906;SDS011;36882;27.680;85.304;2022-11-14T06:08:55;88.38;;;48.38;;
50906;SDS011;36882;27.680;85.304;2022-11-14T06:11:25;95.40;;;53.08;;
50906;SDS011;36882;27.680;85.304;2022-11-14T06:13:55;84.20;;;47.15;;
50906;SDS011;36882;27.680;85.304;2022-11-14T06:16:25;80.47;;;43.38;;
50906;SDS011;36882;27.680;85.304;2022-11-14T06:21:24;58.20;;;34.72;;
50906;SDS011;36882;27.680;85.304;2022-11-14T06:23:54;75.53;;;38.05;;
50906;SDS011;36882;27.680;85.304;2022-11-14T06:26:26;71.60;;;37.63;;
50906;SDS011;36882;27.680;85.304;2022-11-14T06:28:58;61.33;;;38.20;;
50906;SDS011;36882;27.680;85.304;2022-11-14T06:31:28;68.45;;;35.30;;
50906;SDS011;36882;27.680;85.304;2022-11-14T06:33:58;54.30;;;34.30;;
50906;SDS011;36882;27.680;85.304;2022-11-14T06:36:28;59.95;;;28.98;;
50906;SDS011;36882;27.680;85.304;2022-11-14T06:38:58;63.88;;;27.00;;
50906;SDS011;36882;27.680;85.304;2022-11-14T06:41:28;49.67;;;26.23;;
50906;SDS011;36882;27.680;85.304;2022-11-14T06:43:58;53.80;;;25.02;;
50906;SDS011;36882;27.680;85.304;2022-11-14T06:46:28;59.42;;;29.08;;
50906;SDS011;36882;27.680;85.304;2022-11-14T06:48:58;47.03;;;31.08;;
50906;SDS011;36882;27.680;85.304;2022-11-14T06:51:28;60.92;;;35.33;;
50906;SDS011;36882;27.680;85.304;2022-11-14T06:56:28;66.60;;;34.03;;
50906;SDS011;36882;27.680;85.304;2022-11-14T06:58:58;59.63;;;34.55;;
50906;SDS011;36882;27.680;85.304;2022-11-14T07:01:28;53.28;;;35.58;;
50906;SDS011;36882;27.680;85.304;2022-11-14T07:03:58;78.47;;;38.90;;
50906;SDS011;36882;27.680;85.304;2022-11-14T07:06:29;379.25;;;210.27;;
50906;SDS011;36882;27.680;85.304;2022-11-14T07:09:00;106.45;;;59.92;;
50906;SDS011;36882;27.680;85.304;2022-11-14T07:11:29;62.67;;;32.70;;
50906;SDS011;36882;27.680;85.304;2022-11-14T07:14:01;57.00;;;34.53;;
50906;SDS011;36882;27.680;85.304;2022-11-14T07:16:32;63.53;;;38.22;;
50906;SDS011;36882;27.680;85.304;2022-11-14T07:19:04;89.50;;;49.47;;
50906;SDS011;36882;27.680;85.304;2022-11-14T07:21:37;78.20;;;47.40;;
50906;SDS011;36882;27.680;85.304;2022-11-14T07:24:07;82.28;;;45.53;;
50906;SDS011;36882;27.680;85.304;2022-11-14T07:26:37;83.88;;;45.78;;
50906;SDS011;36882;27.680;85.304;2022-11-14T07:29:07;80.00;;;47.50;;
50906;SDS011;36882;27.680;85.304;2022-11-14T07:31:37;77.65;;;47.65;;
50906;SDS011;36882;27.680;85.304;2022-11-14T07:34:09;78.97;;;48.20;;
50906;SDS011;36882;27.680;85.304;2022-11-14T07:39:09;79.22;;;44.63;;
50906;SDS011;36882;27.680;85.304;2022-11-14T07:41:41;84.75;;;46.88;;
50906;SDS011;36882;27.680;85.304;2022-11-14T07:46:41;89.70;;;46.38;;
50906;SDS011;36882;27.680;85.304;2022-11-14T07:49:11;99.68;;;50.70;;
50906;SDS011;36882;27.680;85.304;2022-11-14T07:51:41;99.15;;;54.20;;
50906;SDS011;36882;27.680;85.304;2022-11-14T07:54:11;84.00;;;49.30;;
50906;SDS011;36882;27.680;85.304;2022-11-14T07:58:09;89.78;;;51.70;;
50906;SDS011;36882;27.680;85.304;2022-11-14T08:00:41;97.95;;;53.97;;
50906;SDS011;36882;27.680;85.304;2022-11-14T08:03:11;94.35;;;50.60;;
50906;SDS011;36882;27.680;85.304;2022-11-14T08:05:42;71.57;;;45.47;;
50906;SDS011;36882;27.680;85.304;2022-11-14T08:08:12;83.25;;;52.47;;
50906;SDS011;36882;27.680;85.304;2022-11-14T08:10:42;85.95;;;53.47;;
50906;SDS011;36882;27.680;85.304;2022-11-14T08:13:12;86.20;;;46.35;;
50906;SDS011;36882;27.680;85.304;2022-11-14T08:16:02;83.22;;;46.65;;
50906;SDS011;36882;27.680;85.304;2022-11-14T08:18:39;70.03;;;41.75;;
50906;SDS011;36882;27.680;85.304;2022-11-14T08:21:09;76.50;;;42.75;;
50906;SDS011;36882;27.680;85.304;2022-11-14T08:23:39;72.20;;;42.75;;
50906;SDS011;36882;27.680;85.304;2022-11-14T08:26:09;68.43;;;38.58;;
50906;SDS011;36882;27.680;85.304;2022-11-14T08:28:39;70.03;;;40.45;;
50906;SDS011;36882;27.680;85.304;2022-11-14T08:31:09;78.93;;;43.90;;
50906;SDS011;36882;27.680;85.304;2022-11-14T08:33:40;72.25;;;40.30;;
50906;SDS011;36882;27.680;85.304;2022-11-14T08:36:10;64.70;;;39.50;;
50906;SDS011;36882;27.680;85.304;2022-11-14T08:38:40;62.78;;;37.13;;
50906;SDS011;36882;27.680;85.304;2022-11-14T08:41:10;59.63;;;39.05;;
50906;SDS011;36882;27.680;85.304;2022-11-14T08:43:41;72.43;;;39.08;;
50906;SDS011;36882;27.680;85.304;2022-11-14T08:46:11;66.65;;;37.22;;
50906;SDS011;36882;27.680;85.304;2022-11-14T08:48:42;68.22;;;38.13;;
50906;SDS011;36882;27.680;85.304;2022-11-14T08:51:12;68.28;;;37.50;;
50906;SDS011;36882;27.680;85.304;2022-11-14T08:53:43;60.20;;;37.55;;
50906;SDS011;36882;27.680;85.304;2022-11-14T08:56:13;60.00;;;36.47;;
50906;SDS011;36882;27.680;85.304;2022-11-14T08:58:44;62.63;;;34.78;;
50906;SDS011;36882;27.680;85.304;2022-11-14T09:01:14;64.35;;;36.75;;
50906;SDS011;36882;27.680;85.304;2022-11-14T09:03:45;67.38;;;38.63;;
50906;SDS011;36882;27.680;85.304;2022-11-14T09:06:21;62.20;;;36.95;;
50906;SDS011;36882;27.680;85.304;2022-11-14T09:08:51;66.15;;;37.03;;
50906;SDS011;36882;27.680;85.304;2022-11-14T09:11:22;63.05;;;36.33;;
50906;SDS011;36882;27.680;85.304;2022-11-14T09:13:52;71.95;;;41.08;;
50906;SDS011;36882;27.680;85.304;2022-11-14T09:16:23;56.90;;;36.30;;
50906;SDS011;36882;27.680;85.304;2022-11-14T09:18:53;66.40;;;36.03;;
50906;SDS011;36882;27.680;85.304;2022-11-14T09:21:24;60.15;;;39.03;;
50906;SDS011;36882;27.680;85.304;2022-11-14T09:23:56;64.18;;;36.22;;
50906;SDS011;36882;27.680;85.304;2022-11-14T09:26:27;67.97;;;37.17;;
50906;SDS011;36882;27.680;85.304;2022-11-14T09:28:58;61.60;;;34.03;;
50906;SDS011;36882;27.680;85.304;2022-11-14T09:31:30;72.03;;;36.90;;
50906;SDS011;36882;27.680;85.304;2022-11-14T09:34:00;55.28;;;34.70;;
50906;SDS011;36882;27.680;85.304;2022-11-14T09:36:31;59.92;;;33.83;;
50906;SDS011;36882;27.680;85.304;2022-11-14T09:39:01;62.63;;;37.17;;
50906;SDS011;36882;27.680;85.304;2022-11-14T09:41:52;65.88;;;35.70;;
50906;SDS011;36882;27.680;85.304;2022-11-14T09:44:44;59.60;;;36.25;;
50906;SDS011;36882;27.680;85.304;2022-11-14T09:47:27;68.18;;;39.17;;
50906;SDS011;36882;27.680;85.304;2022-11-14T09:50:03;64.97;;;40.13;;
50906;SDS011;36882;27.680;85.304;2022-11-14T09:52:40;62.17;;;37.92;;
50906;SDS011;36882;27.680;85.304;2022-11-14T09:55:17;81.88;;;37.30;;
50906;SDS011;36882;27.680;85.304;2022-11-14T09:57:49;66.88;;;39.33;;
50906;SDS011;36882;27.680;85.304;2022-11-14T10:00:21;63.80;;;38.92;;
50906;SDS011;36882;27.680;85.304;2022-11-14T10:06:34;71.65;;;38.08;;
50906;SDS011;36882;27.680;85.304;2022-11-14T10:12:06;82.43;;;40.03;;
50906;SDS011;36882;27.680;85.304;2022-11-14T10:14:55;65.93;;;39.63;;
50906;SDS011;36882;27.680;85.304;2022-11-14T10:18:14;91.75;;;47.42;;
50906;SDS011;36882;27.680;85.304;2022-11-14T10:20:56;78.15;;;43.47;;
50906;SDS011;36882;27.680;85.304;2022-11-14T10:23:45;75.40;;;41.42;;
50906;SDS011;36882;27.680;85.304;2022-11-14T10:26:26;76.47;;;43.30;;
50906;SDS011;36882;27.680;85.304;2022-11-14T10:29:10;87.40;;;44.30;;
50906;SDS011;36882;27.680;85.304;2022-11-14T10:38:03;83.75;;;48.33;;
50906;SDS011;36882;27.680;85.304;2022-11-14T10:40:55;89.90;;;49.15;;
50906;SDS011;36882;27.680;85.304;2022-11-14T10:51:56;82.63;;;49.90;;
50906;SDS011;36882;27.680;85.304;2022-11-14T10:57:17;81.90;;;50.55;;
50906;SDS011;36882;27.680;85.304;2022-11-14T10:59:50;89.25;;;51.42;;
50906;SDS011;36882;27.680;85.304;2022-11-14T11:02:23;74.80;;;49.00;;
50906;SDS011;36882;27.680;85.304;2022-11-14T11:05:10;93.60;;;53.10;;
50906;SDS011;36882;27.680;85.304;2022-11-14T11:07:44;102.40;;;54.63;;
50906;SDS011;36882;27.680;85.304;2022-11-14T11:10:53;89.45;;;52.50;;
50906;SDS011;36882;27.680;85.304;2022-11-14T11:13:53;87.63;;;50.88;;
50906;SDS011;36882;27.680;85.304;2022-11-14T11:16:25;88.47;;;52.70;;
50906;SDS011;36882;27.680;85.304;2022-11-14T11:21:54;98.30;;;55.55;;
50906;SDS011;36882;27.680;85.304;2022-11-14T11:24:32;91.88;;;54.13;;
50906;SDS011;36882;27.680;85.304;2022-11-14T11:32:46;98.30;;;58.00;;
50906;SDS011;36882;27.680;85.304;2022-11-14T11:35:17;98.60;;;57.80;;
50906;SDS011;36882;27.680;85.304;2022-11-14T11:37:50;113.40;;;62.13;;
50906;SDS011;36882;27.680;85.304;2022-11-14T11:40:26;105.97;;;58.33;;
50906;SDS011;36882;27.680;85.304;2022-11-14T11:43:01;111.20;;;60.50;;
50906;SDS011;36882;27.680;85.304;2022-11-14T11:45:59;104.93;;;57.55;;
50906;SDS011;36882;27.680;85.304;2022-11-14T11:48:38;103.72;;;59.75;;
50906;SDS011;36882;27.680;85.304;2022-11-14T11:51:12;108.95;;;60.53;;
50906;SDS011;36882;27.680;85.304;2022-11-14T11:54:10;100.82;;;59.88;;
50906;SDS011;36882;27.680;85.304;2022-11-14T11:56:43;99.38;;;60.83;;
50906;SDS011;36882;27.680;85.304;2022-11-14T12:04:55;116.43;;;65.35;;
50906;SDS011;36882;27.680;85.304;2022-11-14T12:07:38;115.63;;;67.47;;
50906;SDS011;36882;27.680;85.304;2022-11-14T12:10:22;121.40;;;65.55;;
50906;SDS011;36882;27.680;85.304;2022-11-14T12:13:06;121.30;;;68.35;;
50906;SDS011;36882;27.680;85.304;2022-11-14T12:16:10;125.57;;;70.88;;
50906;SDS011;36882;27.680;85.304;2022-11-14T12:18:54;129.00;;;71.63;;
50906;SDS011;36882;27.680;85.304;2022-11-14T12:24:49;143.32;;;82.55;;
50906;SDS011;36882;27.680;85.304;2022-11-14T12:30:36;146.15;;;83.53;;
50906;SDS011;36882;27.680;85.304;2022-11-14T12:33:11;142.70;;;86.63;;
50906;SDS011;36882;27.680;85.304;2022-11-14T12:35:51;139.40;;;79.15;;
50906;SDS011;36882;27.680;85.304;2022-11-14T12:38:31;136.88;;;74.43;;
50906;SDS011;36882;27.680;85.304;2022-11-14T12:41:10;129.60;;;73.88;;
50906;SDS011;36882;27.680;85.304;2022-11-14T12:43:49;121.30;;;76.00;;
50906;SDS011;36882;27.680;85.304;2022-11-14T12:46:19;140.43;;;81.00;;
50906;SDS011;36882;27.680;85.304;2022-11-14T12:48:50;132.23;;;77.10;;
50906;SDS011;36882;27.680;85.304;2022-11-14T12:57:20;146.55;;;76.45;;
50906;SDS011;36882;27.680;85.304;2022-11-14T13:00:10;127.38;;;76.25;;
50906;SDS011;36882;27.680;85.304;2022-11-14T13:02:46;142.45;;;75.28;;
50906;SDS011;36882;27.680;85.304;2022-11-14T13:08:32;133.82;;;75.07;;
50906;SDS011;36882;27.680;85.304;2022-11-14T13:11:43;139.57;;;78.80;;
50906;SDS011;36882;27.680;85.304;2022-11-14T13:14:51;127.65;;;71.38;;
50906;SDS011;36882;27.680;85.304;2022-11-14T13:17:41;128.57;;;71.10;;
50906;SDS011;36882;27.680;85.304;2022-11-14T13:20:24;124.22;;;70.63;;
50906;SDS011;36882;27.680;85.304;2022-11-14T13:29:04;127.65;;;72.90;;
50906;SDS011;36882;27.680;85.304;2022-11-14T13:31:42;114.88;;;70.35;;
50906;SDS011;36882;27.680;85.304;2022-11-14T13:40:15;128.80;;;76.70;;
50906;SDS011;36882;27.680;85.304;2022-11-14T13:46:09;117.53;;;70.82;;
50906;SDS011;36882;27.680;85.304;2022-11-14T13:49:08;131.38;;;73.40;;
50906;SDS011;36882;27.680;85.304;2022-11-14T13:52:02;133.32;;;80.28;;
50906;SDS011;36882;27.680;85.304;2022-11-14T13:54:32;139.40;;;75.68;;
50906;SDS011;36882;27.680;85.304;2022-11-14T13:57:07;138.77;;;76.65;;
50906;SDS011;36882;27.680;85.304;2022-11-14T13:59:57;120.35;;;75.75;;
50906;SDS011;36882;27.680;85.304;2022-11-14T14:02:52;148.95;;;76.70;;
50906;SDS011;36882;27.680;85.304;2022-11-14T14:05:44;148.80;;;80.82;;
50906;SDS011;36882;27.680;85.304;2022-11-14T14:11:57;162.07;;;88.68;;
50906;SDS011;36882;27.680;85.304;2022-11-14T14:17:42;178.82;;;92.05;;
50906;SDS011;36882;27.680;85.304;2022-11-14T14:20:43;183.63;;;101.35;;
50906;SDS011;36882;27.680;85.304;2022-11-14T14:23:30;178.18;;;101.47;;
50906;SDS011;36882;27.680;85.304;2022-11-14T14:32:27;154.20;;;87.63;;
50906;SDS011;36882;27.680;85.304;2022-11-14T14:37:28;144.18;;;81.68;;
50906;SDS011;36882;27.680;85.304;2022-11-14T14:40:01;146.65;;;81.90;;
50906;SDS011;36882;27.680;85.304;2022-11-14T14:42:38;157.93;;;85.18;;
50906;SDS011;36882;27.680;85.304;2022-11-14T14:45:13;174.25;;;88.60;;
50906;SDS011;36882;27.680;85.304;2022-11-14T14:47:46;160.20;;;89.00;;
50906;SDS011;36882;27.680;85.304;2022-11-14T14:50:22;164.45;;;88.57;;
50906;SDS011;36882;27.680;85.304;2022-11-14T14:52:56;161.70;;;88.20;;
50906;SDS011;36882;27.680;85.304;2022-11-14T14:55:30;176.77;;;93.15;;
50906;SDS011;36882;27.680;85.304;2022-11-14T15:00:59;173.18;;;87.10;;
50906;SDS011;36882;27.680;85.304;2022-11-14T15:03:39;163.63;;;87.05;;
50906;SDS011;36882;27.680;85.304;2022-11-14T15:06:26;146.70;;;84.18;;
50906;SDS011;36882;27.680;85.304;2022-11-14T15:09:02;163.07;;;90.90;;
50906;SDS011;36882;27.680;85.304;2022-11-14T15:11:40;154.98;;;89.03;;
50906;SDS011;36882;27.680;85.304;2022-11-14T15:14:14;161.25;;;82.43;;
50906;SDS011;36882;27.680;85.304;2022-11-14T15:16:49;148.07;;;79.63;;
50906;SDS011;36882;27.680;85.304;2022-11-14T15:19:22;133.43;;;74.43;;
50906;SDS011;36882;27.680;85.304;2022-11-14T15:22:03;153.98;;;86.28;;
50906;SDS011;36882;27.680;85.304;2022-11-14T15:27:50;128.38;;;72.03;;
50906;SDS011;36882;27.680;85.304;2022-11-14T15:30:33;129.23;;;76.50;;
50906;SDS011;36882;27.680;85.304;2022-11-14T15:33:04;126.40;;;69.65;;
50906;SDS011;36882;27.680;85.304;2022-11-14T15:36:11;131.40;;;69.65;;
50906;SDS011;36882;27.680;85.304;2022-11-14T15:39:01;131.55;;;70.80;;
50906;SDS011;36882;27.680;85.304;2022-11-14T15:41:34;127.28;;;70.75;;
50906;SDS011;36882;27.680;85.304;2022-11-14T15:46:38;135.65;;;74.43;;
50906;SDS011;36882;27.680;85.304;2022-11-14T15:52:01;124.20;;;70.75;;
50906;SDS011;36882;27.680;85.304;2022-11-14T15:54:33;127.97;;;74.10;;
50906;SDS011;36882;27.680;85.304;2022-11-14T15:57:10;128.30;;;74.75;;
50906;SDS011;36882;27.680;85.304;2022-11-14T15:59:42;125.20;;;74.47;;
50906;SDS011;36882;27.680;85.304;2022-11-14T16:02:21;134.32;;;78.28;;
50906;SDS011;36882;27.680;85.304;2022-11-14T16:04:57;143.25;;;79.88;;
50906;SDS011;36882;27.680;85.304;2022-11-14T16:07:29;143.07;;;79.85;;
50906;SDS011;36882;27.680;85.304;2022-11-14T16:10:00;140.63;;;76.57;;
50906;SDS011;36882;27.680;85.304;2022-11-14T16:15:01;137.60;;;76.15;;
50906;SDS011;36882;27.680;85.304;2022-11-14T16:17:36;142.23;;;78.03;;
50906;SDS011;36882;27.680;85.304;2022-11-14T16:20:17;139.15;;;78.30;;
50906;SDS011;36882;27.680;85.304;2022-11-14T16:22:49;140.27;;;79.30;;
50906;SDS011;36882;27.680;85.304;2022-11-14T16:25:24;140.05;;;78.93;;
50906;SDS011;36882;27.680;85.304;2022-11-14T16:28:00;149.48;;;83.65;;
50906;SDS011;36882;27.680;85.304;2022-11-14T16:33:00;157.05;;;83.15;;
50906;SDS011;36882;27.680;85.304;2022-11-14T16:35:31;148.23;;;80.38;;
50906;SDS011;36882;27.680;85.304;2022-11-14T16:38:02;162.32;;;87.30;;
50906;SDS011;36882;27.680;85.304;2022-11-14T16:40:34;146.00;;;81.43;;
50906;SDS011;36882;27.680;85.304;2022-11-14T16:43:05;161.23;;;85.75;;
50906;SDS011;36882;27.680;85.304;2022-11-14T16:45:40;157.10;;;83.97;;
50906;SDS011;36882;27.680;85.304;2022-11-14T16:48:11;173.63;;;82.68;;
50906;SDS011;36882;27.680;85.304;2022-11-14T16:50:42;161.07;;;82.25;;